createdAt,value
2023-02-19T00:01:22.026Z,7.66
2023-02-19T00:03:56.562Z,7.66
2023-02-19T00:06:24.810Z,7.61
2023-02-19T00:08:51.471Z,7.62
2023-02-19T00:11:23.970Z,7.60
2023-02-19T00:13:53.255Z,7.61
2023-02-19T00:16:31.296Z,7.61
2023-02-19T00:18:58.910Z,7.62
2023-02-19T00:21:25.924Z,7.57
2023-02-19T00:23:54.722Z,7.57
2023-02-19T00:26:21.922Z,7.58
2023-02-19T00:28:50.042Z,7.54
2023-02-19T00:31:19.525Z,7.61
2023-02-19T00:33:47.763Z,7.62
2023-02-19T00:36:14.689Z,7.61
2023-02-19T00:38:42.746Z,7.64
2023-02-19T00:41:19.725Z,7.64
2023-02-19T00:43:48.378Z,7.61
2023-02-19T00:46:16.445Z,7.64
2023-02-19T00:48:42.887Z,7.57
2023-02-19T00:51:09.818Z,7.51
2023-02-19T00:53:36.559Z,7.55
2023-02-19T00:56:03.374Z,7.55
2023-02-19T00:58:30.028Z,7.54
2023-02-19T01:00:56.907Z,7.53
2023-02-19T01:03:23.650Z,7.52
2023-02-19T01:05:51.552Z,7.58
2023-02-19T01:08:19.148Z,7.59
2023-02-19T01:10:46.194Z,7.61
2023-02-19T01:13:12.895Z,7.61
2023-02-19T01:15:39.385Z,7.65
2023-02-19T01:18:05.868Z,7.64
2023-02-19T01:20:32.461Z,7.56
2023-02-19T01:22:58.995Z,7.55
2023-02-19T01:25:25.423Z,7.55
2023-02-19T01:27:51.867Z,7.58
2023-02-19T01:30:18.524Z,7.58
2023-02-19T01:32:44.998Z,7.51
2023-02-19T01:35:11.480Z,7.53
2023-02-19T01:37:37.918Z,7.50
2023-02-19T01:40:04.630Z,7.51
2023-02-19T01:42:31.084Z,7.55
2023-02-19T01:45:23.106Z,7.53
2023-02-19T01:48:01.956Z,7.50
2023-02-19T01:50:32.465Z,7.47
2023-02-19T01:53:04.225Z,7.45
2023-02-19T01:55:31.812Z,7.47
2023-02-19T01:58:00.236Z,7.53
2023-02-19T02:00:26.907Z,7.49
2023-02-19T02:02:55.994Z,7.43
2023-02-19T02:05:59.107Z,7.51
2023-02-19T02:08:45.170Z,7.47
2023-02-19T02:11:12.576Z,7.46
2023-02-19T02:13:40.458Z,7.47
2023-02-19T02:16:14.092Z,7.45
2023-02-19T02:18:58.323Z,7.44
2023-02-19T02:21:57.115Z,7.60
2023-02-19T02:24:54.542Z,7.61
2023-02-19T02:27:38.148Z,7.66
2023-02-19T02:30:21.087Z,7.52
2023-02-19T02:32:59.552Z,7.43
2023-02-19T02:35:32.755Z,7.38
2023-02-19T02:38:04.807Z,7.38
2023-02-19T02:40:32.107Z,7.34
2023-02-19T02:43:00.671Z,7.23
2023-02-19T02:45:35.145Z,7.18
2023-02-19T02:48:20.402Z,7.25
2023-02-19T02:50:56.105Z,7.14
2023-02-19T02:53:53.654Z,7.20
2023-02-19T02:56:21.064Z,7.13
2023-02-19T02:58:50.172Z,7.02
2023-02-19T03:01:42.876Z,6.95
2023-02-19T03:04:23.935Z,6.78
2023-02-19T03:06:51.919Z,6.69
2023-02-19T03:09:30.038Z,6.69
2023-02-19T03:12:20.865Z,6.60
2023-02-19T03:15:09.850Z,6.56
2023-02-19T03:18:03.233Z,6.52
2023-02-19T03:20:33.842Z,6.47
2023-02-19T03:23:01.986Z,6.46
2023-02-19T03:25:52.653Z,6.36
2023-02-19T03:28:50.637Z,6.41
2023-02-19T03:31:20.930Z,6.36
2023-02-19T03:33:51.943Z,6.34
2023-02-19T03:36:25.598Z,6.31
2023-02-19T03:38:59.510Z,6.24
2023-02-19T03:41:48.091Z,6.22
2023-02-19T03:44:37.240Z,6.22
2023-02-19T03:47:20.249Z,6.27
2023-02-19T03:49:58.633Z,6.24
2023-02-19T03:52:54.472Z,6.31
2023-02-19T03:55:36.077Z,6.29
2023-02-19T03:58:13.093Z,6.25
2023-02-19T04:01:18.515Z,6.23
2023-02-19T04:03:54.107Z,6.28
2023-02-19T04:06:27.731Z,6.36
2023-02-19T04:08:58.149Z,6.36
2023-02-19T04:11:26.262Z,6.30
2023-02-19T04:14:19.135Z,6.33
2023-02-19T04:16:49.805Z,6.32
2023-02-19T04:19:20.653Z,6.32
2023-02-19T04:21:47.643Z,6.31
2023-02-19T04:24:22.365Z,6.34
2023-02-19T04:26:49.120Z,6.34
2023-02-19T04:29:15.534Z,6.16
2023-02-19T04:31:42.000Z,6.19
2023-02-19T04:34:08.436Z,6.21
2023-02-19T04:36:34.869Z,6.24
2023-02-19T04:39:01.280Z,6.18
2023-02-19T04:41:27.724Z,6.13
2023-02-19T04:43:54.166Z,6.07
2023-02-19T04:46:20.689Z,6.05
2023-02-19T04:48:47.233Z,6.08
2023-02-19T04:51:13.723Z,6.11
2023-02-19T04:53:40.169Z,6.08
2023-02-19T04:56:08.309Z,6.12
2023-02-19T04:58:35.202Z,6.17
2023-02-19T05:01:01.676Z,6.21
2023-02-19T05:03:28.106Z,6.27
2023-02-19T05:05:54.542Z,6.24
2023-02-19T05:08:21.088Z,6.26
2023-02-19T05:10:47.487Z,6.27
2023-02-19T05:13:13.962Z,6.26
2023-02-19T05:15:40.364Z,6.26
2023-02-19T05:18:06.766Z,6.22
2023-02-19T05:20:33.166Z,6.30
2023-02-19T05:22:59.582Z,6.39
2023-02-19T05:25:25.964Z,6.32
2023-02-19T05:28:12.329Z,6.35
2023-02-19T05:30:38.709Z,6.38
2023-02-19T05:33:05.130Z,6.45
2023-02-19T05:35:31.571Z,6.49
2023-02-19T05:37:57.978Z,6.51
2023-02-19T05:40:24.400Z,6.54
2023-02-19T05:42:50.797Z,6.48
2023-02-19T05:45:17.183Z,6.47
2023-02-19T05:47:43.581Z,6.50
2023-02-19T05:50:10.041Z,6.50
2023-02-19T05:52:36.466Z,6.56
2023-02-19T05:55:02.976Z,6.55
2023-02-19T05:57:29.376Z,6.47
2023-02-19T05:59:56.485Z,6.41
2023-02-19T06:02:22.979Z,6.42
2023-02-19T06:04:49.449Z,6.34
2023-02-19T06:07:15.841Z,6.35
2023-02-19T06:09:42.213Z,6.25
2023-02-19T06:12:08.663Z,6.15
2023-02-19T06:14:35.054Z,6.04
2023-02-19T06:17:01.457Z,6.08
2023-02-19T06:19:27.847Z,6.05
2023-02-19T06:21:54.269Z,5.99
2023-02-19T06:24:20.711Z,5.97
2023-02-19T06:26:47.122Z,6.02
2023-02-19T06:29:13.528Z,6.05
2023-02-19T06:31:40.098Z,5.96
2023-02-19T06:34:06.622Z,5.97
2023-02-19T06:36:33.389Z,5.99
2023-02-19T06:39:00.691Z,5.99
2023-02-19T06:41:27.077Z,5.97
2023-02-19T06:43:53.778Z,6.04
2023-02-19T06:46:20.295Z,6.07
2023-02-19T06:48:46.783Z,6.15
2023-02-19T06:51:19.330Z,6.13
2023-02-19T06:53:46.202Z,6.14
2023-02-19T06:56:29.026Z,6.03
2023-02-19T06:58:59.743Z,6.02
2023-02-19T07:01:27.711Z,6.04
2023-02-19T07:03:54.403Z,6.02
2023-02-19T07:06:25.299Z,5.88
2023-02-19T07:08:52.896Z,5.88
2023-02-19T07:11:19.414Z,5.87
2023-02-19T07:13:45.898Z,5.83
2023-02-19T07:16:13.092Z,5.83
2023-02-19T07:18:40.506Z,5.92
2023-02-19T07:21:12.986Z,5.79
2023-02-19T07:23:40.210Z,5.77
2023-02-19T07:26:14.185Z,5.78
2023-02-19T07:28:42.132Z,5.82
2023-02-19T07:31:09.361Z,5.66
2023-02-19T07:33:36.328Z,5.68
2023-02-19T07:36:02.859Z,5.67
2023-02-19T07:38:29.322Z,5.65
2023-02-19T07:40:58.515Z,5.68
2023-02-19T07:43:26.658Z,5.72
2023-02-19T07:45:53.154Z,5.74
2023-02-19T07:48:20.182Z,5.81
2023-02-19T07:50:57.938Z,5.75
2023-02-19T07:53:25.708Z,5.66
2023-02-19T07:55:52.247Z,5.76
2023-02-19T07:58:18.739Z,5.59
2023-02-19T08:00:45.336Z,5.67
2023-02-19T08:03:12.043Z,5.56
2023-02-19T08:05:43.043Z,5.32
2023-02-19T08:08:11.998Z,5.18
2023-02-19T08:10:56.989Z,5.35
2023-02-19T08:13:24.216Z,5.49
2023-02-19T08:16:16.076Z,5.47
2023-02-19T08:18:44.336Z,5.52
2023-02-19T08:21:11.610Z,5.56
2023-02-19T08:23:38.643Z,5.50
2023-02-19T08:26:05.663Z,5.50
2023-02-19T08:28:32.466Z,5.60
2023-02-19T08:31:02.127Z,5.77
2023-02-19T08:33:29.049Z,5.84
2023-02-19T08:35:55.506Z,5.85
2023-02-19T08:38:22.418Z,5.96
2023-02-19T08:40:48.823Z,6.04
2023-02-19T08:43:16.930Z,6.12
2023-02-19T08:45:45.012Z,6.18
2023-02-19T08:48:11.812Z,6.31
2023-02-19T08:50:38.771Z,6.33
2023-02-19T08:53:06.461Z,6.50
2023-02-19T08:55:33.888Z,6.35
2023-02-19T08:58:00.774Z,6.54
2023-02-19T09:00:27.419Z,6.60
2023-02-19T09:02:53.903Z,6.65
2023-02-19T09:05:20.302Z,6.60
2023-02-19T09:07:46.883Z,6.73
2023-02-19T09:10:14.166Z,6.93
2023-02-19T09:12:41.330Z,6.90
2023-02-19T09:15:08.312Z,6.95
2023-02-19T09:17:34.795Z,6.89
2023-02-19T09:20:01.244Z,6.87
2023-02-19T09:22:27.683Z,6.94
2023-02-19T09:24:54.114Z,6.94
2023-02-19T09:27:20.812Z,7.13
2023-02-19T09:29:47.456Z,6.99
2023-02-19T09:32:14.497Z,7.07
2023-02-19T09:34:41.077Z,7.25
2023-02-19T09:37:08.091Z,7.32
2023-02-19T09:39:35.376Z,7.33
2023-02-19T09:42:10.639Z,7.27
2023-02-19T09:44:40.189Z,7.06
2023-02-19T09:47:15.406Z,7.29
2023-02-19T09:49:49.849Z,7.26
2023-02-19T09:52:19.039Z,7.05
2023-02-19T09:54:46.768Z,7.00
2023-02-19T09:57:19.084Z,7.23
2023-02-19T09:59:52.056Z,7.32
2023-02-19T10:02:21.832Z,7.07
2023-02-19T10:04:51.184Z,7.31
2023-02-19T10:07:45.393Z,7.56
2023-02-19T10:10:14.763Z,7.46
2023-02-19T10:12:46.671Z,7.43
2023-02-19T10:15:22.408Z,7.56
2023-02-19T10:17:48.841Z,7.51
2023-02-19T10:20:18.953Z,7.39
2023-02-19T10:22:45.783Z,7.13
2023-02-19T10:25:18.078Z,7.02
2023-02-19T10:27:44.602Z,7.34
2023-02-19T10:30:20.627Z,7.30
2023-02-19T10:33:11.003Z,7.25
2023-02-19T10:35:53.319Z,7.37
2023-02-19T10:38:23.603Z,7.43
2023-02-19T10:40:57.858Z,7.40
2023-02-19T10:43:33.087Z,7.39
2023-02-19T10:46:03.264Z,7.46
2023-02-19T10:48:32.834Z,7.27
2023-02-19T10:51:04.889Z,7.13
2023-02-19T10:53:42.988Z,7.17
2023-02-19T10:56:23.904Z,7.11
2023-02-19T10:58:50.913Z,7.10
2023-02-19T11:01:22.942Z,7.08
2023-02-19T11:03:52.157Z,7.23
2023-02-19T11:06:22.007Z,7.64
2023-02-19T11:08:53.006Z,7.64
2023-02-19T11:11:30.626Z,7.45
2023-02-19T11:13:58.422Z,7.32
2023-02-19T11:16:39.465Z,7.39
2023-02-19T11:19:06.268Z,7.26
2023-02-19T11:21:33.438Z,7.31
2023-02-19T11:24:04.624Z,7.29
2023-02-19T11:26:38.029Z,7.30
2023-02-19T11:29:22.509Z,7.31
2023-02-19T11:31:49.333Z,7.30
2023-02-19T11:34:20.931Z,7.31
2023-02-19T11:37:07.534Z,7.39
2023-02-19T11:39:34.570Z,7.35
2023-02-19T11:42:24.166Z,7.23
2023-02-19T11:45:07.771Z,7.27
2023-02-19T11:47:59.122Z,7.27
2023-02-19T11:50:28.406Z,7.34
2023-02-19T11:53:16.548Z,7.23
2023-02-19T11:56:20.819Z,7.27
2023-02-19T11:59:28.842Z,7.13
2023-02-19T12:02:13.775Z,7.12
2023-02-19T12:05:38.790Z,7.08
2023-02-19T12:08:41.167Z,7.10
2023-02-19T12:11:44.717Z,7.03
2023-02-19T12:14:45.759Z,6.97
2023-02-19T12:17:33.948Z,6.97
2023-02-19T12:20:09.914Z,6.87
2023-02-19T12:22:52.686Z,6.85
2023-02-19T12:25:41.819Z,6.91
2023-02-19T12:28:23.474Z,7.01
2023-02-19T12:31:14.130Z,7.04
2023-02-19T12:33:43.449Z,7.19
2023-02-19T12:36:28.430Z,7.26
2023-02-19T12:39:07.588Z,7.12
2023-02-19T12:41:49.038Z,7.14
2023-02-19T12:44:34.622Z,7.24
2023-02-19T12:47:06.461Z,7.32
2023-02-19T12:49:37.042Z,7.53
2023-02-19T12:52:09.385Z,7.71
2023-02-19T12:54:41.789Z,7.72
2023-02-19T12:57:10.962Z,7.91
2023-02-19T12:59:43.884Z,8.07
2023-02-19T13:02:10.243Z,8.07
2023-02-19T13:04:49.848Z,8.13
2023-02-19T13:07:38.688Z,8.07
2023-02-19T13:10:11.089Z,7.85
2023-02-19T13:12:41.519Z,7.63
2023-02-19T13:15:18.480Z,7.31
2023-02-19T13:17:51.316Z,7.12
2023-02-19T13:20:28.184Z,7.08
2023-02-19T13:23:27.340Z,7.09
2023-02-19T13:26:31.190Z,7.05
2023-02-19T13:29:09.912Z,7.10
2023-02-19T13:31:54.628Z,7.10
2023-02-19T13:35:02.169Z,7.19
2023-02-19T13:37:33.177Z,7.32
2023-02-19T13:40:06.613Z,7.31
2023-02-19T13:42:35.886Z,7.38
2023-02-19T13:45:05.439Z,7.60
2023-02-19T13:47:53.752Z,7.39
2023-02-19T13:50:23.133Z,7.12
2023-02-19T13:52:51.061Z,7.17
2023-02-19T13:55:42.629Z,7.18
2023-02-19T13:58:33.784Z,7.21
2023-02-19T14:01:11.705Z,7.34
2023-02-19T14:03:54.105Z,7.18
2023-02-19T14:06:21.441Z,7.05
2023-02-19T14:09:00.162Z,7.03
2023-02-19T14:11:41.844Z,7.06
2023-02-19T14:14:41.636Z,7.23
2023-02-19T14:17:17.583Z,7.17
2023-02-19T14:19:53.329Z,7.17
2023-02-19T14:22:44.980Z,7.13
2023-02-19T14:25:34.065Z,7.06
2023-02-19T14:28:04.246Z,6.94
2023-02-19T14:30:34.594Z,6.87
2023-02-19T14:33:10.700Z,6.74
2023-02-19T14:35:42.310Z,6.72
2023-02-19T14:38:18.020Z,6.89
2023-02-19T14:40:47.039Z,6.98
2023-02-19T14:43:16.800Z,7.05
2023-02-19T14:46:07.529Z,7.02
2023-02-19T14:48:39.555Z,7.07
2023-02-19T14:51:22.095Z,7.07
2023-02-19T14:53:49.620Z,7.08
2023-02-19T14:56:26.336Z,7.11
2023-02-19T14:59:21.903Z,6.81
2023-02-19T15:01:55.925Z,6.96
2023-02-19T15:04:28.810Z,6.84
2023-02-19T15:06:57.052Z,6.81
2023-02-19T15:09:31.860Z,6.69
2023-02-19T15:11:59.113Z,6.61
2023-02-19T15:14:28.594Z,6.54
2023-02-19T15:17:00.064Z,6.60
2023-02-19T15:19:26.797Z,6.71
2023-02-19T15:21:55.014Z,6.75
2023-02-19T15:24:21.816Z,6.60
2023-02-19T15:26:51.624Z,6.59
2023-02-19T15:29:23.494Z,6.65
2023-02-19T15:31:56.055Z,6.60
2023-02-19T15:34:28.241Z,6.60
2023-02-19T15:37:01.653Z,6.72
2023-02-19T15:39:38.095Z,6.70
2023-02-19T15:42:07.447Z,6.66
2023-02-19T15:44:56.925Z,6.70
2023-02-19T15:48:08.569Z,6.77
2023-02-19T15:50:41.075Z,6.83
2023-02-19T15:53:14.438Z,6.65
2023-02-19T15:56:07.521Z,6.62
2023-02-19T15:59:13.311Z,6.68
2023-02-19T16:01:40.209Z,6.69
2023-02-19T16:04:12.863Z,6.61
2023-02-19T16:06:53.243Z,6.61
2023-02-19T16:09:23.083Z,6.59
2023-02-19T16:11:55.220Z,6.59
2023-02-19T16:14:39.673Z,6.54
2023-02-19T16:17:16.534Z,6.48
2023-02-19T16:19:42.885Z,6.40
2023-02-19T16:22:15.942Z,6.41
2023-02-19T16:24:45.505Z,6.44
2023-02-19T16:27:14.117Z,6.48
2023-02-19T16:29:40.955Z,6.52
2023-02-19T16:32:16.750Z,6.51
2023-02-19T16:34:50.475Z,6.44
2023-02-19T16:37:37.715Z,6.43
2023-02-19T16:40:07.198Z,6.45
2023-02-19T16:42:58.047Z,6.41
2023-02-19T16:45:27.106Z,6.34
2023-02-19T16:47:53.917Z,6.36
2023-02-19T16:50:23.094Z,6.30
2023-02-19T16:53:03.912Z,6.22
2023-02-19T16:55:37.490Z,6.26
2023-02-19T16:58:03.906Z,6.23
2023-02-19T17:00:31.353Z,6.22
2023-02-19T17:03:01.643Z,6.16
2023-02-19T17:05:30.820Z,6.19
2023-02-19T17:07:57.237Z,6.15
2023-02-19T17:10:26.533Z,6.10
2023-02-19T17:12:54.436Z,6.13
2023-02-19T17:15:21.720Z,6.00
2023-02-19T17:17:48.236Z,6.06
2023-02-19T17:20:17.429Z,6.08
2023-02-19T17:22:44.195Z,6.11
2023-02-19T17:25:10.622Z,6.08
2023-02-19T17:27:37.058Z,6.09
2023-02-19T17:30:09.943Z,6.17
2023-02-19T17:32:36.418Z,6.21
2023-02-19T17:35:02.903Z,6.24
2023-02-19T17:37:29.314Z,6.26
2023-02-19T17:39:55.750Z,6.17
2023-02-19T17:42:23.413Z,6.12
2023-02-19T17:44:51.774Z,6.19
2023-02-19T17:47:19.196Z,6.17
2023-02-19T17:49:45.663Z,6.10
2023-02-19T17:52:13.551Z,6.09
2023-02-19T17:54:39.954Z,6.01
2023-02-19T17:57:06.361Z,6.05
2023-02-19T17:59:32.755Z,6.02
2023-02-19T18:01:59.189Z,6.08
2023-02-19T18:04:25.589Z,6.12
2023-02-19T18:06:53.839Z,6.11
2023-02-19T18:09:22.262Z,6.09
2023-02-19T18:11:49.284Z,6.04
2023-02-19T18:14:15.680Z,6.03
2023-02-19T18:16:49.818Z,6.00
2023-02-19T18:19:16.816Z,5.94
2023-02-19T18:21:43.225Z,6.06
2023-02-19T18:24:09.627Z,5.99
2023-02-19T18:26:36.023Z,5.90
2023-02-19T18:29:02.578Z,5.97
2023-02-19T18:31:32.421Z,5.95
2023-02-19T18:33:58.887Z,6.03
2023-02-19T18:36:25.304Z,5.97
2023-02-19T18:38:51.716Z,5.96
2023-02-19T18:41:20.834Z,6.00
2023-02-19T18:43:48.312Z,6.04
2023-02-19T18:46:15.060Z,6.08
2023-02-19T18:48:41.562Z,5.99
2023-02-19T18:51:11.466Z,5.99
2023-02-19T18:53:38.064Z,6.02
2023-02-19T18:56:05.383Z,6.10
2023-02-19T18:58:31.798Z,6.05
2023-02-19T19:00:59.381Z,6.00
2023-02-19T19:03:25.960Z,6.03
2023-02-19T19:05:52.617Z,6.13
2023-02-19T19:08:19.046Z,6.04
2023-02-19T19:10:45.461Z,6.04
2023-02-19T19:13:11.875Z,6.16
2023-02-19T19:15:41.145Z,6.14
2023-02-19T19:18:08.763Z,6.14
2023-02-19T19:20:35.196Z,6.08
2023-02-19T19:23:01.631Z,6.03
2023-02-19T19:25:28.033Z,6.07
2023-02-19T19:27:56.311Z,6.08
2023-02-19T19:30:23.094Z,6.04
2023-02-19T19:32:50.344Z,6.08
2023-02-19T19:35:21.203Z,6.09
2023-02-19T19:37:48.073Z,6.07
2023-02-19T19:40:17.244Z,6.07
2023-02-19T19:42:44.661Z,5.77
2023-02-19T19:45:11.921Z,5.87
2023-02-19T19:47:38.389Z,5.77
2023-02-19T19:50:05.132Z,5.74
2023-02-19T19:52:31.554Z,5.73
2023-02-19T19:54:58.277Z,5.74
2023-02-19T19:57:24.704Z,5.71
2023-02-19T19:59:51.399Z,5.76
2023-02-19T20:02:18.281Z,5.77
2023-02-19T20:04:44.877Z,5.80
2023-02-19T20:07:11.310Z,5.78
2023-02-19T20:09:37.720Z,5.82
2023-02-19T20:12:04.941Z,5.80
2023-02-19T20:14:31.364Z,5.83
2023-02-19T20:16:58.235Z,5.83
2023-02-19T20:19:24.730Z,5.89
2023-02-19T20:21:53.053Z,5.92
2023-02-19T20:24:24.106Z,6.01
2023-02-19T20:26:52.743Z,5.92
2023-02-19T20:29:19.514Z,5.86
2023-02-19T20:31:50.708Z,5.89
2023-02-19T20:34:18.240Z,5.92
2023-02-19T20:36:46.992Z,5.92
2023-02-19T20:39:14.847Z,5.88
2023-02-19T20:41:48.660Z,5.89
2023-02-19T20:44:15.602Z,5.81
2023-02-19T20:46:47.058Z,5.76
2023-02-19T20:49:14.752Z,5.89
2023-02-19T20:51:46.754Z,5.93
2023-02-19T20:54:13.545Z,5.99
2023-02-19T20:56:48.037Z,5.95
2023-02-19T20:59:16.151Z,5.97
2023-02-19T21:01:43.407Z,5.97
2023-02-19T21:04:10.481Z,5.91
2023-02-19T21:06:37.010Z,5.93
2023-02-19T21:09:04.694Z,5.90
2023-02-19T21:11:31.728Z,5.89
2023-02-19T21:13:59.265Z,5.94
2023-02-19T21:16:27.282Z,6.03
2023-02-19T21:18:53.836Z,5.94
2023-02-19T21:21:24.986Z,5.92
2023-02-19T21:23:56.648Z,5.87
2023-02-19T21:26:24.072Z,5.85
2023-02-19T21:28:51.720Z,5.76
2023-02-19T21:31:18.518Z,5.72
2023-02-19T21:33:45.244Z,5.81
2023-02-19T21:36:12.076Z,5.86
2023-02-19T21:38:38.733Z,5.84
2023-02-19T21:41:05.231Z,5.79
2023-02-19T21:43:31.727Z,5.81
2023-02-19T21:45:58.265Z,5.76
2023-02-19T21:48:24.718Z,5.78
2023-02-19T21:50:51.137Z,5.78
2023-02-19T21:53:17.739Z,5.67
2023-02-19T21:55:57.460Z,5.70
2023-02-19T21:58:25.434Z,5.66
2023-02-19T22:00:53.797Z,5.64
2023-02-19T22:03:20.347Z,5.61
2023-02-19T22:05:46.778Z,5.59
2023-02-19T22:08:15.511Z,5.57
2023-02-19T22:10:42.485Z,5.58
2023-02-19T22:13:09.982Z,5.54
2023-02-19T22:15:36.730Z,5.52
2023-02-19T22:18:03.269Z,5.51
2023-02-19T22:20:29.669Z,5.45
2023-02-19T22:22:56.144Z,5.47
2023-02-19T22:25:22.586Z,5.49
2023-02-19T22:27:49.073Z,5.49
2023-02-19T22:30:16.082Z,5.39
2023-02-19T22:32:42.679Z,5.34
2023-02-19T22:35:09.188Z,5.32
2023-02-19T22:37:35.632Z,5.28
2023-02-19T22:40:02.062Z,5.32
2023-02-19T22:42:29.313Z,5.31
2023-02-19T22:44:55.930Z,5.29
2023-02-19T22:47:22.388Z,5.24
2023-02-19T22:49:48.813Z,5.24
2023-02-19T22:52:15.318Z,5.18
2023-02-19T22:54:41.751Z,5.14
2023-02-19T22:57:08.184Z,5.15
2023-02-19T22:59:34.638Z,5.19
2023-02-19T23:02:01.131Z,5.20
2023-02-19T23:04:27.573Z,5.25
2023-02-19T23:06:54.268Z,5.29
2023-02-19T23:09:26.503Z,5.35
2023-02-19T23:12:00.605Z,5.31
2023-02-19T23:14:27.025Z,5.35
2023-02-19T23:16:53.481Z,5.31
2023-02-19T23:19:19.978Z,5.34
2023-02-19T23:21:46.922Z,5.36
2023-02-19T23:24:14.207Z,5.42
2023-02-19T23:26:45.797Z,5.48
2023-02-19T23:29:16.263Z,5.49
2023-02-19T23:31:42.873Z,5.49
2023-02-19T23:34:09.573Z,5.46
2023-02-19T23:36:44.064Z,5.43
2023-02-19T23:39:12.590Z,5.43
2023-02-19T23:41:39.059Z,5.49
2023-02-19T23:44:05.720Z,5.47
2023-02-19T23:46:33.813Z,5.45
2023-02-19T23:49:00.200Z,5.39
2023-02-19T23:51:26.635Z,5.43
2023-02-19T23:53:53.046Z,5.47
2023-02-19T23:56:24.891Z,5.43
2023-02-19T23:58:51.353Z,5.37
